Time;durP1;ratioP1;P1;durP2;ratioP2;P2;SDS_P1;SDS_P2;PMS_P1;PMS_P2;Temp;Humidity;BMP_temperature;BMP_pressure;BME280_temperature;BME280_humidity;BME280_pressure;Samples;Min_cycle;Max_cycle;Signal;HPM_P1;HPM_P2
2022/05/16 00:00:37;;;;;;;9.17;5.33;;;18.50;96.00;;;;;;5001056;28;20449;-92
2022/05/16 00:03:06;;;;;;;6.83;5.40;;;18.50;96.10;;;;;;5002508;28;20480;-90
2022/05/16 00:05:32;;;;;;;7.63;4.60;;;18.40;96.20;;;;;;5003029;28;20424;-89
2022/05/16 00:07:58;;;;;;;5.20;4.67;;;18.50;96.30;;;;;;5003989;28;20479;-91
2022/05/16 00:10:24;;;;;;;6.80;5.00;;;18.40;96.50;;;;;;5005861;28;20901;-90
2022/05/16 00:12:50;;;;;;;10.50;6.80;;;18.40;96.70;;;;;;4998994;28;20502;-92
2022/05/16 00:15:19;;;;;;;5.80;4.47;;;18.30;96.60;;;;;;4998504;28;20471;-93
2022/05/16 00:17:45;;;;;;;5.60;5.00;;;18.30;96.50;;;;;;4998696;28;20539;-89
2022/05/16 00:20:11;;;;;;;5.83;4.80;;;18.30;96.90;;;;;;4998456;28;20413;-93
2022/05/16 00:22:38;;;;;;;5.20;4.70;;;18.30;97.00;;;;;;4999272;28;20500;-89
2022/05/16 00:25:06;;;;;;;6.60;5.70;;;18.20;97.10;;;;;;4998691;28;20430;-91
2022/05/16 00:27:34;;;;;;;5.43;4.80;;;18.20;97.40;;;;;;4984409;28;20469;-92
2022/05/16 00:30:12;;;;;;;5.73;4.27;;;18.10;97.50;;;;;;4981669;28;20417;-92
2022/05/16 00:32:38;;;;;;;9.80;5.27;;;18.10;97.70;;;;;;4982744;28;20511;-91
2022/05/16 00:35:05;;;;;;;6.10;4.77;;;18.10;97.70;;;;;;4998368;28;20410;-89
2022/05/16 00:37:31;;;;;;;7.83;5.10;;;18.10;97.80;;;;;;4999229;28;20562;-92
2022/05/16 00:39:56;;;;;;;5.07;4.53;;;18.00;98.00;;;;;;4980790;28;20422;-92
2022/05/16 00:42:22;;;;;;;6.30;5.47;;;18.00;98.30;;;;;;4981360;28;20226;-93
2022/05/16 00:44:48;;;;;;;11.47;5.30;;;18.00;98.00;;;;;;4980547;28;20183;-90
2022/05/16 00:47:14;;;;;;;6.47;5.23;;;17.90;98.00;;;;;;4981694;28;20212;-89
2022/05/16 00:49:46;;;;;;;8.30;5.20;;;17.90;98.10;;;;;;5004440;28;20549;-91
2022/05/16 00:52:20;;;;;;;6.00;4.37;;;17.90;98.20;;;;;;4981287;28;20456;-93
2022/05/16 00:54:52;;;;;;;5.20;4.70;;;17.90;98.30;;;;;;4978980;28;20755;-93
2022/05/16 00:57:22;;;;;;;7.37;6.10;;;17.90;98.20;;;;;;4979768;28;20860;-91
2022/05/16 01:00:17;;;;;;;6.53;5.70;;;17.80;98.20;;;;;;4996518;28;20396;-93
2022/05/16 01:05:31;;;;;;;8.67;5.27;;;17.70;98.40;;;;;;4996563;28;20392;-92
2022/05/16 01:08:09;;;;;;;6.80;5.27;;;17.60;98.40;;;;;;4978666;28;20465;-89
2022/05/16 01:10:35;;;;;;;7.00;5.37;;;17.50;98.60;;;;;;4978253;28;20501;-93
2022/05/16 01:13:03;;;;;;;6.33;4.70;;;17.50;98.80;;;;;;4980255;28;20449;-91
2022/05/16 01:15:43;;;;;;;5.93;5.00;;;17.50;98.80;;;;;;4979361;28;20481;-89
2022/05/16 01:18:11;;;;;;;7.80;5.40;;;17.40;98.80;;;;;;4996697;28;20477;-93
2022/05/16 01:20:52;;;;;;;7.70;5.30;;;17.40;98.90;;;;;;4996164;28;20406;-89
2022/05/16 01:23:22;;;;;;;7.50;4.70;;;17.40;99.20;;;;;;4996354;28;21052;-91
2022/05/16 01:25:49;;;;;;;8.97;5.80;;;17.40;99.30;;;;;;4979312;28;20455;-93
2022/05/16 01:28:18;;;;;;;7.87;4.97;;;17.40;99.30;;;;;;5000132;28;20432;-91
2022/05/16 01:30:46;;;;;;;5.40;4.90;;;17.40;99.30;;;;;;4999858;28;20417;-93
2022/05/16 01:33:13;;;;;;;6.80;5.07;;;17.40;99.40;;;;;;5016881;28;20424;-93
2022/05/16 01:35:39;;;;;;;9.10;4.90;;;17.40;99.50;;;;;;5016583;28;20436;-89
2022/05/16 01:38:23;;;;;;;8.23;5.27;;;17.30;99.40;;;;;;5025298;28;20432;-91
2022/05/16 01:40:51;;;;;;;8.93;5.27;;;17.30;99.60;;;;;;5014671;28;20164;-91
2022/05/16 01:43:18;;;;;;;8.00;5.37;;;17.30;99.70;;;;;;5014582;28;20470;-93
2022/05/16 01:45:45;;;;;;;7.83;5.10;;;17.20;99.80;;;;;;4997384;28;20413;-92
2022/05/16 01:48:13;;;;;;;5.33;4.83;;;17.20;99.90;;;;;;5015160;28;20787;-92
2022/05/16 01:50:40;;;;;;;5.30;4.77;;;17.20;99.90;;;;;;4998229;28;20419;-90
2022/05/16 01:53:06;;;;;;;5.73;5.13;;;17.20;99.90;;;;;;4999345;28;20440;-89
2022/05/16 01:55:32;;;;;;;7.27;5.70;;;17.10;99.90;;;;;;4999363;28;20447;-89
2022/05/16 01:57:58;;;;;;;6.70;5.57;;;17.10;99.90;;;;;;4999680;28;20445;-89
2022/05/16 02:00:24;;;;;;;6.87;4.80;;;17.10;99.90;;;;;;5000332;28;20262;-92
2022/05/16 02:02:49;;;;;;;5.93;5.23;;;17.10;99.90;;;;;;5000313;28;20651;-93
2022/05/16 02:05:19;;;;;;;7.13;5.37;;;17.10;99.90;;;;;;5018476;28;20404;-92
2022/05/16 02:07:45;;;;;;;6.83;4.90;;;17.00;99.90;;;;;;5017814;28;20191;-93
2022/05/16 02:10:12;;;;;;;6.20;5.60;;;17.00;99.90;;;;;;5000364;28;20435;-89
2022/05/16 02:12:38;;;;;;;5.17;4.67;;;17.10;99.90;;;;;;4999997;28;20440;-92
2022/05/16 02:15:07;;;;;;;6.83;5.33;;;17.10;99.90;;;;;;4999752;28;20472;-89
2022/05/16 02:17:33;;;;;;;7.40;5.70;;;17.00;99.90;;;;;;5017583;28;20476;-89
2022/05/16 02:19:59;;;;;;;7.93;5.80;;;17.00;99.90;;;;;;5026799;28;20428;-89
2022/05/16 02:25:10;;;;;;;6.57;5.97;;;17.00;99.90;;;;;;5018946;28;20388;-89
2022/05/16 02:27:36;;;;;;;6.07;5.33;;;17.00;99.90;;;;;;4987385;28;21029;-92
2022/05/16 02:30:04;;;;;;;6.23;5.17;;;17.00;99.90;;;;;;4998945;28;20401;-89
2022/05/16 02:32:29;;;;;;;6.20;5.50;;;17.00;99.90;;;;;;4982093;28;20452;-93
2022/05/16 02:34:55;;;;;;;8.53;5.27;;;16.90;99.90;;;;;;4981869;28;20409;-88
2022/05/16 02:37:21;;;;;;;6.07;5.47;;;16.90;99.90;;;;;;4981800;28;20230;-92
2022/05/16 02:39:47;;;;;;;7.87;5.50;;;16.80;99.90;;;;;;4982485;28;20241;-89
2022/05/16 02:42:14;;;;;;;8.40;6.40;;;16.80;99.90;;;;;;5000173;28;20567;-92
2022/05/16 02:44:43;;;;;;;8.70;6.10;;;16.70;99.90;;;;;;4999224;28;20215;-89
2022/05/16 02:47:20;;;;;;;8.83;6.00;;;16.70;99.90;;;;;;4999259;28;20460;-90
2022/05/16 02:49:46;;;;;;;9.03;5.43;;;16.60;99.90;;;;;;4982887;28;20406;-92
2022/05/16 02:52:12;;;;;;;8.43;5.80;;;16.60;99.90;;;;;;4982714;28;20543;-89
2022/05/16 02:54:38;;;;;;;9.00;5.30;;;16.60;99.90;;;;;;4999937;28;20242;-89
2022/05/16 02:57:06;;;;;;;7.93;5.83;;;16.60;99.90;;;;;;4982547;28;20457;-89
2022/05/16 02:59:33;;;;;;;9.83;5.83;;;16.60;99.90;;;;;;4984502;28;20339;-92
2022/05/16 03:02:04;;;;;;;9.60;6.40;;;16.60;99.90;;;;;;4988594;28;20925;-91
2022/05/16 03:04:31;;;;;;;7.90;6.03;;;16.50;99.90;;;;;;4990513;28;20931;-92
2022/05/16 03:06:57;;;;;;;7.40;5.07;;;16.60;99.90;;;;;;4999415;28;20480;-93
2022/05/16 03:09:23;;;;;;;8.30;6.10;;;16.60;99.90;;;;;;4999091;28;20402;-89
2022/05/16 03:11:49;;;;;;;6.77;5.83;;;16.60;99.90;;;;;;4981139;28;20199;-89
2022/05/16 03:14:15;;;;;;;6.27;5.67;;;16.70;99.90;;;;;;4983068;28;20410;-89
2022/05/16 03:16:41;;;;;;;8.30;5.40;;;16.70;99.90;;;;;;4999740;28;20497;-92
2022/05/16 03:19:07;;;;;;;5.27;4.77;;;16.80;99.90;;;;;;4999436;28;20413;-91
2022/05/16 03:21:34;;;;;;;6.10;5.50;;;16.80;99.90;;;;;;4982394;28;20187;-93
2022/05/16 03:24:00;;;;;;;6.13;5.10;;;16.80;99.90;;;;;;4999566;28;20527;-89
2022/05/16 03:26:26;;;;;;;8.40;4.80;;;16.90;99.90;;;;;;4989360;28;20433;-92
2022/05/16 03:28:52;;;;;;;9.60;5.70;;;16.90;99.90;;;;;;5019159;28;20405;-92
2022/05/16 03:31:19;;;;;;;8.80;5.63;;;16.80;99.90;;;;;;5019364;28;20412;-92
2022/05/16 03:33:44;;;;;;;8.83;5.93;;;16.80;99.90;;;;;;5000499;28;20444;-87
2022/05/16 03:36:10;;;;;;;8.00;5.50;;;16.80;99.90;;;;;;5005104;28;20432;-89
2022/05/16 03:41:21;;;;;;;5.73;5.20;;;16.80;99.90;;;;;;5016922;28;21000;-93
2022/05/16 03:43:47;;;;;;;8.77;6.13;;;16.80;99.90;;;;;;5016677;28;20464;-93
2022/05/16 03:46:13;;;;;;;6.83;6.13;;;16.80;99.90;;;;;;5000301;28;20524;-93
2022/05/16 03:48:39;;;;;;;8.87;6.83;;;16.80;99.90;;;;;;5018489;28;20547;-89
2022/05/16 03:51:07;;;;;;;6.43;5.83;;;16.80;99.90;;;;;;5001946;28;20482;-92
2022/05/16 03:53:43;;;;;;;6.17;5.57;;;16.80;99.90;;;;;;4999704;28;20433;-89
2022/05/16 03:56:08;;;;;;;7.57;5.33;;;16.90;99.90;;;;;;5019398;28;20511;-89
2022/05/16 03:58:34;;;;;;;6.87;5.40;;;16.90;99.90;;;;;;5018707;28;20457;-89
2022/05/16 04:01:00;;;;;;;6.23;5.47;;;16.90;99.90;;;;;;5002443;28;20195;-92
2022/05/16 04:03:27;;;;;;;7.30;5.77;;;16.90;99.90;;;;;;5001705;28;20215;-88
2022/05/16 04:05:53;;;;;;;8.23;6.03;;;16.90;99.90;;;;;;5007879;28;20424;-93
2022/05/16 04:08:18;;;;;;;6.27;5.63;;;16.90;99.90;;;;;;4998282;28;20954;-92
2022/05/16 04:10:44;;;;;;;5.40;4.90;;;16.90;99.90;;;;;;5016293;28;20548;-89
2022/05/16 04:13:10;;;;;;;9.57;7.43;;;16.90;99.90;;;;;;4998822;28;20205;-92
2022/05/16 04:15:35;;;;;;;8.57;5.93;;;16.90;99.90;;;;;;4998812;28;20227;-92
2022/05/16 04:18:01;;;;;;;8.67;7.03;;;16.90;99.90;;;;;;4998784;28;20225;-88
2022/05/16 04:20:27;;;;;;;8.30;6.60;;;17.00;99.90;;;;;;4998717;28;20644;-91
2022/05/16 04:22:53;;;;;;;7.43;6.40;;;17.00;99.90;;;;;;5000194;28;20215;-92
2022/05/16 04:25:20;;;;;;;7.07;6.40;;;17.10;99.90;;;;;;4999427;28;20190;-90
2022/05/16 04:27:45;;;;;;;8.00;6.30;;;17.10;99.90;;;;;;5015813;28;20195;-93
2022/05/16 04:30:12;;;;;;;9.60;6.00;;;17.10;99.90;;;;;;5017482;28;20584;-90
2022/05/16 04:32:38;;;;;;;7.33;6.10;;;17.20;99.90;;;;;;5001644;28;20673;-92
2022/05/16 04:35:05;;;;;;;8.90;7.20;;;17.30;99.90;;;;;;4997319;28;20431;-93
2022/05/16 04:37:32;;;;;;;10.10;6.10;;;17.30;99.90;;;;;;4995315;28;20814;-94
2022/05/16 04:40:05;;;;;;;7.27;6.47;;;17.40;99.90;;;;;;4997093;28;20417;-90
2022/05/16 04:42:43;;;;;;;7.30;6.50;;;17.50;99.90;;;;;;4999547;28;20831;-90
2022/05/16 04:45:24;;;;;;;9.57;6.07;;;17.50;99.90;;;;;;4984293;28;20428;-90
2022/05/16 04:47:53;;;;;;;7.20;6.03;;;17.50;99.90;;;;;;4992078;28;20457;-90
2022/05/16 04:50:34;;;;;;;7.10;5.00;;;17.60;99.90;;;;;;5017554;28;20740;-93
2022/05/16 04:53:00;;;;;;;7.67;6.27;;;17.60;99.90;;;;;;5000625;28;20464;-90
2022/05/16 04:55:29;;;;;;;6.10;5.60;;;17.70;99.90;;;;;;5001057;28;20444;-90
2022/05/16 04:57:57;;;;;;;8.17;5.93;;;17.80;99.90;;;;;;4991625;28;20982;-93
2022/05/16 05:00:23;;;;;;;7.50;5.93;;;17.80;99.90;;;;;;5014567;28;20436;-91
2022/05/16 05:02:49;;;;;;;7.40;5.30;;;17.90;99.90;;;;;;5000698;28;20468;-94
2022/05/16 05:05:16;;;;;;;7.63;6.00;;;17.90;99.90;;;;;;4983327;28;20484;-92
2022/05/16 05:07:42;;;;;;;6.57;5.20;;;18.00;99.90;;;;;;4986885;28;20230;-90
2022/05/16 05:15:39;;;;;;;9.30;6.73;;;18.30;99.90;;;;;;5008181;28;20467;-94
2022/05/16 05:18:05;;;;;;;9.23;6.00;;;18.40;99.90;;;;;;4996368;28;20987;-93
2022/05/16 05:20:34;;;;;;;7.90;6.40;;;18.50;99.90;;;;;;5013218;28;20413;-93
2022/05/16 05:23:03;;;;;;;8.73;6.33;;;18.50;99.90;;;;;;4995901;28;21106;-93
2022/05/16 05:25:28;;;;;;;8.07;6.30;;;18.60;99.90;;;;;;4997969;28;20417;-89
2022/05/16 05:27:55;;;;;;;11.27;6.90;;;18.70;99.90;;;;;;4991849;28;20473;-90
2022/05/16 05:30:24;;;;;;;7.30;6.23;;;18.80;99.90;;;;;;5006148;28;20180;-93
2022/05/16 05:32:51;;;;;;;7.17;5.97;;;18.90;99.90;;;;;;5001977;28;20466;-90
2022/05/16 05:35:17;;;;;;;6.30;5.47;;;19.00;99.90;;;;;;4994502;28;20623;-93
2022/05/16 05:37:43;;;;;;;8.03;6.90;;;19.00;99.90;;;;;;4995650;28;20457;-90
2022/05/16 05:40:10;;;;;;;13.90;6.60;;;19.10;99.90;;;;;;4994261;28;20512;-93
2022/05/16 05:42:36;;;;;;;7.10;6.20;;;19.20;99.90;;;;;;4997864;28;20219;-94
2022/05/16 05:45:04;;;;;;;9.13;6.30;;;19.30;99.90;;;;;;4998152;28;20419;-90
2022/05/16 05:47:30;;;;;;;6.87;6.10;;;19.40;99.90;;;;;;5010239;28;20485;-93
2022/05/16 05:49:56;;;;;;;9.57;6.87;;;19.40;99.90;;;;;;4993811;28;20421;-93
2022/05/16 05:52:22;;;;;;;9.83;7.27;;;19.50;99.90;;;;;;4990481;28;20461;-90
2022/05/16 05:54:48;;;;;;;10.03;7.30;;;19.50;99.90;;;;;;5012722;28;20192;-94
2022/05/16 05:57:16;;;;;;;9.37;7.30;;;19.60;99.90;;;;;;5014525;28;20515;-90
2022/05/16 05:59:43;;;;;;;10.23;7.20;;;19.70;99.90;;;;;;4997058;28;20246;-90
2022/05/16 06:02:10;;;;;;;8.60;6.57;;;19.80;99.90;;;;;;5014286;28;20475;-91
2022/05/16 06:04:36;;;;;;;8.30;6.80;;;19.90;99.90;;;;;;4989969;28;20430;-91
2022/05/16 06:07:02;;;;;;;9.77;7.37;;;20.00;99.90;;;;;;4990076;28;20971;-88
2022/05/16 06:09:28;;;;;;;7.63;6.70;;;20.10;99.90;;;;;;5014649;28;20409;-91
2022/05/16 06:11:54;;;;;;;8.47;6.80;;;20.20;99.90;;;;;;5014502;28;20450;-88
2022/05/16 06:14:20;;;;;;;9.50;5.77;;;20.20;99.90;;;;;;5009339;28;20239;-88
2022/05/16 06:16:46;;;;;;;7.93;6.30;;;20.30;99.90;;;;;;5011576;28;20470;-91
2022/05/16 06:19:14;;;;;;;8.83;6.00;;;20.40;99.80;;;;;;5012511;28;20426;-90
2022/05/16 06:21:40;;;;;;;7.63;6.10;;;20.50;99.50;;;;;;5009368;28;20253;-89
2022/05/16 06:25:31;;;;;;;7.20;5.97;;;20.50;99.20;;;;;;4993878;28;20487;-89
2022/05/16 06:26:52;;;;;;;7.53;5.80;;;20.60;99.00;;;;;;5010561;28;20483;-89
2022/05/16 06:29:18;;;;;;;9.33;6.17;;;20.70;98.70;;;;;;4987650;28;20488;-89
2022/05/16 06:31:44;;;;;;;6.80;5.80;;;20.80;98.50;;;;;;4995999;28;20794;-92
2022/05/16 06:34:09;;;;;;;6.57;5.77;;;20.90;98.60;;;;;;4981411;28;20172;-91
2022/05/16 06:36:35;;;;;;;7.57;5.90;;;21.00;98.60;;;;;;4992590;28;20960;-92
2022/05/16 06:39:01;;;;;;;7.07;6.37;;;21.10;98.70;;;;;;5009811;28;20588;-88
2022/05/16 06:41:27;;;;;;;9.50;6.37;;;21.20;97.90;;;;;;4988748;28;20248;-92
2022/05/16 06:43:52;;;;;;;16.13;5.97;;;21.30;97.60;;;;;;4983034;28;20602;-90
2022/05/16 06:46:18;;;;;;;8.67;5.47;;;21.40;97.50;;;;;;4988086;28;20775;-88
2022/05/16 06:48:44;;;;;;;6.43;5.83;;;21.50;97.90;;;;;;5001957;28;20186;-92
2022/05/16 06:51:09;;;;;;;12.73;5.57;;;21.60;97.90;;;;;;4987262;28;20258;-88
2022/05/16 06:53:35;;;;;;;6.10;5.50;;;21.60;97.60;;;;;;4989015;28;20496;-92
2022/05/16 06:56:03;;;;;;;7.10;5.77;;;21.70;97.70;;;;;;4985947;28;20194;-91
2022/05/16 06:58:29;;;;;;;7.87;5.50;;;21.80;97.60;;;;;;4992245;28;20615;-90
2022/05/16 07:00:56;;;;;;;5.73;5.23;;;21.90;97.60;;;;;;5002462;28;20456;-89
2022/05/16 07:03:21;;;;;;;8.43;5.17;;;22.00;97.60;;;;;;4994479;28;20962;-89
2022/05/16 07:05:49;;;;;;;5.80;5.10;;;22.20;97.30;;;;;;4993666;28;20512;-91
2022/05/16 07:08:16;;;;;;;6.70;5.50;;;22.20;96.90;;;;;;4996228;28;20210;-92
2022/05/16 07:10:42;;;;;;;5.93;5.00;;;22.40;96.90;;;;;;5023138;28;20514;-92
2022/05/16 07:13:08;;;;;;;5.57;5.03;;;22.50;96.20;;;;;;4990765;28;20525;-92
2022/05/16 07:15:34;;;;;;;5.97;4.83;;;22.60;96.40;;;;;;4988119;28;20468;-91
2022/05/16 07:18:00;;;;;;;6.50;4.50;;;22.70;95.70;;;;;;4988333;28;20488;-89
2022/05/16 07:20:26;;;;;;;5.63;4.80;;;22.80;95.50;;;;;;4996523;28;20484;-90
2022/05/16 07:22:52;;;;;;;5.80;4.07;;;22.80;95.20;;;;;;4989081;28;20222;-89
2022/05/16 07:25:22;;;;;;;5.90;4.57;;;22.90;95.00;;;;;;4994083;28;20653;-91
2022/05/16 07:27:57;;;;;;;7.07;4.70;;;23.00;94.50;;;;;;4996057;28;20298;-90
2022/05/16 07:30:34;;;;;;;7.23;4.97;;;23.10;95.00;;;;;;4994479;28;20428;-89
2022/05/16 07:33:01;;;;;;;6.63;3.90;;;23.30;94.60;;;;;;4997932;28;20480;-92
2022/05/16 07:35:32;;;;;;;6.30;4.20;;;23.40;93.90;;;;;;4997235;28;21001;-92
2022/05/16 07:37:59;;;;;;;5.30;3.93;;;23.50;94.10;;;;;;4996757;28;20448;-92
2022/05/16 07:40:29;;;;;;;4.07;3.63;;;23.60;93.20;;;;;;4995025;28;20470;-92
2022/05/16 07:42:56;;;;;;;9.43;4.80;;;23.70;93.50;;;;;;4993660;28;20492;-91
2022/05/16 07:45:23;;;;;;;5.53;3.93;;;23.80;93.00;;;;;;4986762;28;20423;-92
2022/05/16 07:47:49;;;;;;;4.00;3.70;;;23.90;92.90;;;;;;4987728;28;20812;-92
2022/05/16 07:50:16;;;;;;;4.00;3.60;;;24.00;93.10;;;;;;4994947;28;20803;-89
2022/05/16 07:52:44;;;;;;;5.00;3.77;;;24.10;91.90;;;;;;4995530;28;20448;-89
2022/05/16 07:55:14;;;;;;;8.30;4.30;;;24.10;92.20;;;;;;5018531;28;20424;-92
2022/05/16 07:57:39;;;;;;;5.10;4.20;;;24.20;92.20;;;;;;4993946;28;20540;-89
2022/05/16 08:00:06;;;;;;;5.10;3.97;;;24.30;92.40;;;;;;4991967;28;20707;-90
2022/05/16 08:02:32;;;;;;;4.00;3.07;;;24.40;91.80;;;;;;4994819;28;20256;-90
2022/05/16 08:04:58;;;;;;;4.30;2.70;;;24.60;91.30;;;;;;5010017;28;20971;-91
2022/05/16 08:07:24;;;;;;;3.50;3.20;;;24.60;89.60;;;;;;4993995;28;20212;-92
2022/05/16 08:12:36;;;;;;;3.47;3.17;;;24.90;87.80;;;;;;5014210;28;20219;-90
2022/05/16 08:15:03;;;;;;;6.20;3.83;;;25.00;88.50;;;;;;4993129;28;20483;-89
2022/05/16 08:17:31;;;;;;;3.67;3.37;;;25.00;88.10;;;;;;5019405;28;20457;-92
2022/05/16 08:19:57;;;;;;;3.63;3.00;;;25.10;87.10;;;;;;4996132;28;20502;-89
2022/05/16 08:22:34;;;;;;;3.47;3.17;;;25.20;88.00;;;;;;4992225;28;20878;-89
2022/05/16 08:25:00;;;;;;;3.00;2.80;;;25.30;88.10;;;;;;5010403;28;20191;-89
2022/05/16 08:27:26;;;;;;;2.80;2.50;;;25.40;88.20;;;;;;4987880;28;20460;-90
2022/05/16 08:29:52;;;;;;;3.27;3.03;;;25.50;87.10;;;;;;5004636;28;20183;-92
2022/05/16 08:32:23;;;;;;;2.67;2.47;;;25.60;85.50;;;;;;4993596;28;20870;-92
2022/05/16 08:34:58;;;;;;;3.63;2.90;;;25.70;85.60;;;;;;4997863;28;20508;-92
2022/05/16 08:40:09;;;;;;;2.67;2.40;;;25.90;85.40;;;;;;5003912;28;20482;-89
2022/05/16 08:42:42;;;;;;;3.23;2.93;;;26.00;86.30;;;;;;4998399;28;20929;-90
2022/05/16 08:45:17;;;;;;;3.90;3.13;;;26.00;86.60;;;;;;5003792;28;20445;-91
2022/05/16 08:48:06;;;;;;;4.17;2.77;;;26.10;86.90;;;;;;4997464;28;20823;-89
2022/05/16 08:50:44;;;;;;;3.40;2.90;;;26.20;86.90;;;;;;5012984;28;20846;-89
2022/05/16 08:53:18;;;;;;;3.23;2.93;;;26.30;87.00;;;;;;5012914;28;20805;-89
2022/05/16 08:55:48;;;;;;;2.87;2.63;;;26.40;86.80;;;;;;4992402;28;20521;-92
2022/05/16 08:58:24;;;;;;;2.53;2.33;;;26.40;86.80;;;;;;4995581;28;20471;-92
2022/05/16 09:01:08;;;;;;;3.60;3.33;;;26.40;86.40;;;;;;4989804;28;20444;-92
2022/05/16 09:03:50;;;;;;;4.77;3.03;;;26.60;86.10;;;;;;5006108;28;20479;-90
2022/05/16 09:06:32;;;;;;;3.83;2.97;;;26.70;84.70;;;;;;4994877;28;20467;-91
2022/05/16 09:09:14;;;;;;;4.90;3.10;;;26.70;85.20;;;;;;5018127;28;20437;-89
2022/05/16 09:12:13;;;;;;;3.33;3.03;;;26.80;85.20;;;;;;4990610;28;20475;-92
2022/05/16 09:14:52;;;;;;;3.33;3.03;;;26.80;85.20;;;;;;4978071;28;20434;-89
2022/05/16 09:17:43;;;;;;;3.73;3.00;;;26.90;85.00;;;;;;4990513;28;21326;-92
2022/05/16 09:21:05;;;;;;;2.97;2.77;;;26.90;84.70;;;;;;4994090;28;20436;-89
2022/05/16 09:24:04;;;;;;;2.53;2.40;;;27.00;84.60;;;;;;4910063;29;20929;-91
2022/05/16 09:26:54;;;;;;;5.03;3.20;;;27.20;82.50;;;;;;5002757;28;20512;-92
2022/05/16 09:29:35;;;;;;;3.40;2.97;;;27.20;82.60;;;;;;4980564;28;20452;-91
2022/05/16 09:32:07;;;;;;;4.30;2.90;;;27.30;82.20;;;;;;4995408;28;20483;-92
2022/05/16 09:34:33;;;;;;;3.30;3.00;;;27.40;81.20;;;;;;4988780;28;20440;-91
2022/05/16 09:36:59;;;;;;;2.97;2.77;;;27.40;80.90;;;;;;4989697;28;20507;-90
2022/05/16 09:39:31;;;;;;;4.37;3.57;;;27.40;80.30;;;;;;4994041;28;20498;-90
2022/05/16 09:42:09;;;;;;;4.80;3.40;;;27.30;82.00;;;;;;4997430;28;20206;-91
2022/05/16 09:44:56;;;;;;;4.17;3.63;;;27.30;82.40;;;;;;5007794;28;20456;-89
2022/05/16 09:47:34;;;;;;;7.07;3.13;;;27.30;82.40;;;;;;5012870;28;20456;-91
2022/05/16 09:50:05;;;;;;;3.87;3.07;;;27.30;82.50;;;;;;5006414;28;20431;-92
2022/05/16 09:52:48;;;;;;;3.53;3.23;;;27.40;81.00;;;;;;4997686;28;20468;-93
2022/05/16 09:55:23;;;;;;;3.23;2.93;;;27.50;79.70;;;;;;5006557;28;20443;-88
2022/05/16 09:57:55;;;;;;;6.60;3.70;;;27.50;80.40;;;;;;5007144;28;20463;-88
2022/05/16 10:00:42;;;;;;;3.43;3.00;;;27.60;80.60;;;;;;4990053;28;20834;-88
2022/05/16 10:03:30;;;;;;;3.90;3.50;;;27.70;80.30;;;;;;4988905;28;21044;-89
2022/05/16 10:05:59;;;;;;;3.77;3.47;;;27.70;80.70;;;;;;4991837;28;20440;-89
2022/05/16 10:08:40;;;;;;;3.57;3.37;;;27.70;79.50;;;;;;4990910;28;20983;-89
2022/05/16 10:11:22;;;;;;;5.53;3.27;;;27.80;80.00;;;;;;5006761;28;20432;-89
2022/05/16 10:13:48;;;;;;;5.20;3.57;;;27.80;80.40;;;;;;5005108;28;20436;-90
2022/05/16 10:16:15;;;;;;;7.97;3.33;;;27.80;80.60;;;;;;4993602;28;20470;-90
2022/05/16 10:18:54;;;;;;;3.53;3.23;;;27.80;80.60;;;;;;4989096;28;20434;-90
2022/05/16 10:21:51;;;;;;;5.20;3.60;;;27.80;80.70;;;;;;4992982;28;20477;-92
2022/05/16 10:24:17;;;;;;;5.93;3.20;;;27.90;80.80;;;;;;4971616;28;20479;-92
2022/05/16 10:26:47;;;;;;;3.57;3.27;;;27.90;80.10;;;;;;5019012;28;20470;-92
2022/05/16 10:29:16;;;;;;;3.53;3.10;;;28.00;79.90;;;;;;4986559;28;20535;-92
2022/05/16 10:35:09;;;;;;;4.07;3.10;;;28.20;79.40;;;;;;4994933;28;20449;-90
2022/05/16 10:37:42;;;;;;;4.80;3.20;;;28.20;79.80;;;;;;4989100;28;20466;-92
2022/05/16 10:40:12;;;;;;;3.40;3.10;;;28.20;79.90;;;;;;4990880;28;20891;-91
2022/05/16 10:43:00;;;;;;;3.93;3.23;;;28.30;80.00;;;;;;5010667;28;20982;-91
2022/05/16 10:45:29;;;;;;;3.73;3.40;;;28.30;80.20;;;;;;5005159;28;20885;-90
2022/05/16 10:48:05;;;;;;;3.50;3.20;;;28.40;79.90;;;;;;4989524;28;20467;-91
2022/05/16 10:50:52;;;;;;;3.47;3.17;;;28.40;79.70;;;;;;4997226;28;20489;-92
2022/05/16 10:53:27;;;;;;;4.40;3.17;;;28.50;79.10;;;;;;4998894;28;20547;-90
2022/05/16 10:56:34;;;;;;;3.70;3.40;;;28.60;79.00;;;;;;5006764;28;20440;-89
2022/05/16 10:59:57;;;;;;;3.70;3.30;;;28.60;77.70;;;;;;5012295;28;20964;-92
2022/05/16 11:02:38;;;;;;;3.73;3.43;;;28.60;77.90;;;;;;4946918;28;20485;-90
2022/05/16 11:05:24;;;;;;;4.10;3.27;;;28.50;78.00;;;;;;4986121;28;20664;-92
2022/05/16 11:08:09;;;;;;;3.70;3.40;;;28.40;78.30;;;;;;5002252;28;20476;-93
2022/05/16 11:11:14;;;;;;;5.47;4.10;;;28.40;78.40;;;;;;4989370;28;20902;-90
2022/05/16 11:13:48;;;;;;;3.57;3.10;;;28.40;77.50;;;;;;4980161;28;20461;-92
2022/05/16 11:16:31;;;;;;;3.80;3.40;;;28.30;78.30;;;;;;4992826;28;20996;-91
2022/05/16 11:19:22;;;;;;;3.33;3.03;;;28.20;78.50;;;;;;4997892;28;20445;-92
2022/05/16 11:22:13;;;;;;;3.70;3.30;;;28.30;79.00;;;;;;4992323;28;20455;-92
2022/05/16 11:25:00;;;;;;;3.87;3.57;;;28.30;79.10;;;;;;4990712;28;20512;-91
2022/05/16 11:27:40;;;;;;;3.57;3.27;;;28.30;78.60;;;;;;5011731;28;20463;-90
2022/05/16 11:30:19;;;;;;;3.57;2.97;;;28.40;78.50;;;;;;5013743;28;20413;-92
2022/05/16 11:33:00;;;;;;;4.10;3.80;;;28.40;78.60;;;;;;5003222;28;20449;-92
2022/05/16 11:35:57;;;;;;;3.83;3.00;;;28.50;77.80;;;;;;5012495;28;20567;-92
2022/05/16 11:38:25;;;;;;;4.33;3.50;;;28.50;77.80;;;;;;5012302;28;20892;-89
2022/05/16 11:40:58;;;;;;;3.80;3.50;;;28.50;78.30;;;;;;5007655;28;20525;-92
2022/05/16 11:43:31;;;;;;;3.57;3.23;;;28.40;78.20;;;;;;5016813;28;20481;-91
2022/05/16 11:46:20;;;;;;;3.90;3.60;;;28.40;78.40;;;;;;5009093;28;20572;-89
2022/05/16 11:49:05;;;;;;;3.30;3.00;;;28.30;78.40;;;;;;5011105;28;20499;-91
2022/05/16 11:51:51;;;;;;;3.90;3.23;;;28.30;78.30;;;;;;5009990;28;20485;-90
2022/05/16 11:54:25;;;;;;;4.53;3.40;;;28.40;78.30;;;;;;4992624;28;20471;-89
2022/05/16 12:02:28;;;;;;;4.47;3.33;;;28.50;77.70;;;;;;5009974;28;20480;-90
2022/05/16 12:05:17;;;;;;;3.13;2.90;;;28.50;77.80;;;;;;5010049;28;20477;-92
2022/05/16 12:07:52;;;;;;;4.83;4.43;;;28.50;77.80;;;;;;5002462;28;20462;-90
2022/05/16 12:10:30;;;;;;;3.37;3.07;;;28.50;76.60;;;;;;4995308;28;20565;-92
2022/05/16 12:13:20;;;;;;;3.70;3.40;;;28.50;77.70;;;;;;4989732;28;20556;-92
2022/05/16 12:15:46;;;;;;;3.83;3.50;;;28.60;77.80;;;;;;4984347;28;21050;-88
2022/05/16 12:18:33;;;;;;;3.63;2.90;;;28.60;77.90;;;;;;4987465;28;20449;-88
2022/05/16 12:21:00;;;;;;;5.13;3.30;;;28.60;77.70;;;;;;5002880;28;20477;-90
2022/05/16 12:23:48;;;;;;;3.93;3.43;;;28.60;77.60;;;;;;4983155;28;20466;-90
2022/05/16 12:26:32;;;;;;;5.10;3.20;;;28.70;77.80;;;;;;4995872;28;20439;-90
2022/05/16 12:29:13;;;;;;;4.80;3.70;;;28.70;77.80;;;;;;4985763;28;20447;-88
2022/05/16 12:31:59;;;;;;;3.80;3.27;;;28.80;77.00;;;;;;4986071;28;20468;-88
2022/05/16 12:34:28;;;;;;;3.90;3.50;;;28.80;76.70;;;;;;4983688;28;20436;-88
2022/05/16 12:36:59;;;;;;;4.10;3.50;;;28.80;77.00;;;;;;4988151;28;20462;-88
2022/05/16 12:40:14;;;;;;;4.57;3.23;;;28.70;77.30;;;;;;4989622;28;20431;-88
2022/05/16 12:42:52;;;;;;;4.17;3.30;;;28.80;77.80;;;;;;4989745;28;20636;-88
2022/05/16 12:45:40;;;;;;;4.63;3.67;;;28.70;77.80;;;;;;4992625;28;20446;-88
2022/05/16 12:48:21;;;;;;;5.40;3.07;;;28.80;77.70;;;;;;5009581;28;20478;-88
2022/05/16 12:51:09;;;;;;;3.33;3.03;;;28.80;77.30;;;;;;4992630;28;20448;-90
2022/05/16 12:54:13;;;;;;;4.00;3.70;;;28.90;77.10;;;;;;4989288;28;21040;-91
2022/05/16 12:56:55;;;;;;;3.67;3.20;;;29.00;76.60;;;;;;5001446;28;20468;-90
2022/05/16 12:59:36;;;;;;;4.80;3.97;;;29.00;76.00;;;;;;4991509;28;20482;-90
2022/05/16 13:02:26;;;;;;;3.63;3.33;;;29.10;76.50;;;;;;5011234;28;20454;-90
2022/05/16 13:05:28;;;;;;;5.37;3.93;;;29.10;76.50;;;;;;5005602;28;20942;-90
2022/05/16 13:08:24;;;;;;;4.50;3.87;;;29.10;76.50;;;;;;4974613;28;20513;-90
2022/05/16 13:11:08;;;;;;;3.47;3.27;;;29.10;76.00;;;;;;4985056;28;20434;-88
2022/05/16 13:14:01;;;;;;;3.57;3.30;;;29.00;76.50;;;;;;5009261;28;20451;-88
2022/05/16 13:16:31;;;;;;;4.20;3.90;;;28.90;76.60;;;;;;4990074;28;20527;-88
2022/05/16 13:19:23;;;;;;;5.43;3.90;;;28.90;76.80;;;;;;4982632;28;20447;-88
2022/05/16 13:22:16;;;;;;;3.90;3.60;;;28.80;77.00;;;;;;4989283;28;20471;-88
2022/05/16 13:24:41;;;;;;;4.03;3.73;;;28.80;77.20;;;;;;5009385;28;20445;-91
2022/05/16 13:30:01;;;;;;;4.03;3.73;;;28.80;77.10;;;;;;5003855;28;20177;-92
2022/05/16 13:32:29;;;;;;;5.67;3.90;;;28.80;76.50;;;;;;4994154;28;20474;-92
2022/05/16 13:35:01;;;;;;;4.40;3.40;;;28.90;76.40;;;;;;4992820;28;20427;-92
2022/05/16 13:37:38;;;;;;;5.60;3.60;;;28.90;76.60;;;;;;4989695;28;20550;-92
2022/05/16 13:40:07;;;;;;;3.47;3.17;;;28.90;76.50;;;;;;4986797;28;20438;-90
2022/05/16 13:42:36;;;;;;;4.87;3.90;;;28.80;76.80;;;;;;4986406;28;20500;-91